createdAt,value
2023-04-27T00:01:44.749Z,83.60
2023-04-27T00:04:14.293Z,83.50
2023-04-27T00:06:42.116Z,83.10
2023-04-27T00:09:09.175Z,83.50
2023-04-27T00:11:36.218Z,83.00
2023-04-27T00:14:03.489Z,82.80
2023-04-27T00:16:30.628Z,82.80
2023-04-27T00:18:57.756Z,82.90
2023-04-27T00:21:24.806Z,83.30
2023-04-27T00:23:51.893Z,82.90
2023-04-27T00:26:19.126Z,82.90
2023-04-27T00:28:46.858Z,82.90
2023-04-27T00:31:13.963Z,83.10
2023-04-27T00:33:41.057Z,83.50
2023-04-27T00:36:08.710Z,83.60
2023-04-27T00:38:35.803Z,83.50
2023-04-27T00:41:07.340Z,83.60
2023-04-27T00:43:43.545Z,83.70
2023-04-27T00:46:12.813Z,84.80
2023-04-27T00:48:41.021Z,85.10
2023-04-27T00:51:08.333Z,84.90
2023-04-27T00:53:37.276Z,85.50
2023-04-27T00:56:06.435Z,85.30
2023-04-27T00:58:33.608Z,84.70
2023-04-27T01:01:01.170Z,84.30
2023-04-27T01:03:28.448Z,84.10
2023-04-27T01:05:56.752Z,84.20
2023-04-27T01:08:24.560Z,84.30
2023-04-27T01:10:51.722Z,84.10
2023-04-27T01:13:19.057Z,84.00
2023-04-27T01:15:46.152Z,83.90
2023-04-27T01:18:13.763Z,83.90
2023-04-27T01:20:42.168Z,84.10
2023-04-27T01:23:14.271Z,84.00
2023-04-27T01:25:43.546Z,83.90
2023-04-27T01:28:10.691Z,85.30
2023-04-27T01:30:37.759Z,86.10
2023-04-27T01:33:04.870Z,86.40
2023-04-27T01:35:32.088Z,87.20
2023-04-27T01:37:59.481Z,86.60
2023-04-27T01:40:26.580Z,87.30
2023-04-27T01:42:53.643Z,87.50
2023-04-27T01:45:20.934Z,87.40
2023-04-27T01:47:50.437Z,86.70
2023-04-27T01:50:17.570Z,86.60
2023-04-27T01:52:44.641Z,86.50
2023-04-27T01:55:11.905Z,86.60
2023-04-27T01:57:39.404Z,86.30
2023-04-27T02:00:07.152Z,86.30
2023-04-27T02:02:34.396Z,86.60
2023-04-27T02:05:01.517Z,86.70
2023-04-27T02:07:28.578Z,86.70
2023-04-27T02:09:55.726Z,86.50
2023-04-27T02:12:22.764Z,87.70
2023-04-27T02:14:49.849Z,87.60
2023-04-27T02:17:16.976Z,87.40
2023-04-27T02:19:44.031Z,87.30
2023-04-27T02:22:11.084Z,87.10
2023-04-27T02:24:38.132Z,87.10
2023-04-27T02:27:05.236Z,87.10
2023-04-27T02:29:32.716Z,87.10
2023-04-27T02:32:00.470Z,86.80
2023-04-27T02:34:27.574Z,85.80
2023-04-27T02:36:54.624Z,85.50
2023-04-27T02:39:21.683Z,85.60
2023-04-27T02:41:48.761Z,85.50
2023-04-27T02:44:15.875Z,85.30
2023-04-27T02:46:45.269Z,85.10
2023-04-27T02:49:12.781Z,85.00
2023-04-27T02:51:39.974Z,84.90
2023-04-27T02:54:07.014Z,84.90
2023-04-27T02:56:34.059Z,86.00
2023-04-27T02:59:01.291Z,86.90
2023-04-27T03:01:28.648Z,87.30
2023-04-27T03:03:55.908Z,88.10
2023-04-27T03:06:23.150Z,88.10
2023-04-27T03:08:50.389Z,87.90
2023-04-27T03:11:17.419Z,87.90
2023-04-27T03:13:44.461Z,87.80
2023-04-27T03:16:11.776Z,88.00
2023-04-27T03:18:39.272Z,87.70
2023-04-27T03:21:11.186Z,87.80
2023-04-27T03:23:38.919Z,88.10
2023-04-27T03:26:10.859Z,88.60
2023-04-27T03:28:38.477Z,88.40
2023-04-27T03:31:06.772Z,88.50
2023-04-27T03:33:34.254Z,88.40
2023-04-27T03:36:01.553Z,88.10
2023-04-27T03:38:28.859Z,88.00
2023-04-27T03:40:56.517Z,87.90
2023-04-27T03:43:24.552Z,87.40
2023-04-27T03:45:52.210Z,87.90
2023-04-27T03:48:19.827Z,87.70
2023-04-27T03:50:47.498Z,87.90
2023-04-27T03:53:14.960Z,88.10
2023-04-27T03:55:43.388Z,88.00
2023-04-27T03:58:11.279Z,87.60
2023-04-27T04:00:38.655Z,87.50
2023-04-27T04:03:06.890Z,87.50
2023-04-27T04:05:34.194Z,87.50
2023-04-27T04:08:01.338Z,87.60
2023-04-27T04:10:28.635Z,87.50
2023-04-27T04:12:55.839Z,87.50
2023-04-27T04:15:22.992Z,87.30
2023-04-27T04:17:50.147Z,88.60
2023-04-27T04:20:17.375Z,89.20
2023-04-27T04:22:44.504Z,89.30
2023-04-27T04:25:12.871Z,89.10
2023-04-27T04:27:40.862Z,89.10
2023-04-27T04:30:08.434Z,89.00
2023-04-27T04:32:37.780Z,88.70
2023-04-27T04:35:06.070Z,88.60
2023-04-27T04:37:35.271Z,88.50
2023-04-27T04:40:10.446Z,88.30
2023-04-27T04:42:38.965Z,87.90
2023-04-27T04:45:07.175Z,87.70
2023-04-27T04:47:34.557Z,87.40
2023-04-27T04:50:01.942Z,87.10
2023-04-27T04:52:29.117Z,86.70
2023-04-27T04:54:56.302Z,86.50
2023-04-27T04:57:23.592Z,86.20
2023-04-27T04:59:50.799Z,85.90
2023-04-27T05:02:17.974Z,85.70
2023-04-27T05:04:45.560Z,85.50
2023-04-27T05:07:15.080Z,85.40
2023-04-27T05:09:42.716Z,85.40
2023-04-27T05:12:10.083Z,85.00
2023-04-27T05:14:37.200Z,84.80
2023-04-27T05:17:04.240Z,84.80
2023-04-27T05:19:31.646Z,85.50
2023-04-27T05:21:59.085Z,85.40
2023-04-27T05:24:26.849Z,85.30
2023-04-27T05:26:54.732Z,84.90
2023-04-27T05:29:22.523Z,85.00
2023-04-27T05:31:49.662Z,84.90
2023-04-27T05:34:16.905Z,84.50
2023-04-27T05:36:44.052Z,85.60
2023-04-27T05:39:11.241Z,85.00
2023-04-27T05:41:38.469Z,85.10
2023-04-27T05:44:06.398Z,84.90
2023-04-27T05:46:33.708Z,84.80
2023-04-27T05:49:01.462Z,84.80
2023-04-27T05:51:28.808Z,84.50
2023-04-27T05:53:56.080Z,84.60
2023-04-27T05:56:23.283Z,84.50
2023-04-27T05:58:50.382Z,84.50
2023-04-27T06:01:17.613Z,84.20
2023-04-27T06:03:44.868Z,84.20
2023-04-27T06:06:12.605Z,84.10
2023-04-27T06:08:39.798Z,84.20
2023-04-27T06:11:07.000Z,84.20
2023-04-27T06:13:34.181Z,84.40
2023-04-27T06:16:01.831Z,84.10
2023-04-27T06:18:29.124Z,84.50
2023-04-27T06:21:01.451Z,84.90
2023-04-27T06:23:28.633Z,84.80
2023-04-27T06:25:55.918Z,85.10
2023-04-27T06:28:23.045Z,85.30
2023-04-27T06:30:50.216Z,85.60
2023-04-27T06:33:17.349Z,85.50
2023-04-27T06:35:47.353Z,85.70
2023-04-27T06:38:14.707Z,85.60
2023-04-27T06:40:41.871Z,85.90
2023-04-27T06:43:08.969Z,85.90
2023-04-27T06:45:36.152Z,86.00
2023-04-27T06:48:03.529Z,86.00
2023-04-27T06:50:30.958Z,85.80
2023-04-27T06:52:58.067Z,85.90
2023-04-27T06:55:27.031Z,85.50
2023-04-27T06:57:54.117Z,85.50
2023-04-27T07:00:21.920Z,85.40
2023-04-27T07:02:49.034Z,85.30
2023-04-27T07:05:16.390Z,85.10
2023-04-27T07:07:43.516Z,85.00
2023-04-27T07:10:10.933Z,85.10
2023-04-27T07:12:40.320Z,85.00
2023-04-27T07:15:08.143Z,85.10
2023-04-27T07:17:35.345Z,85.20
2023-04-27T07:20:04.655Z,85.20
2023-04-27T07:22:32.317Z,85.10
2023-04-27T07:24:59.486Z,85.10
2023-04-27T07:27:26.604Z,85.10
2023-04-27T07:29:53.711Z,85.20
2023-04-27T07:32:21.836Z,85.40
2023-04-27T07:34:53.355Z,85.30
2023-04-27T07:37:22.175Z,85.50
2023-04-27T07:39:51.980Z,85.20
2023-04-27T07:42:20.115Z,85.00
2023-04-27T07:44:47.340Z,84.70
2023-04-27T07:47:14.407Z,85.40
2023-04-27T07:49:41.666Z,84.30
2023-04-27T07:52:08.721Z,81.50
2023-04-27T07:54:35.970Z,81.20
2023-04-27T07:57:09.950Z,80.30
2023-04-27T07:59:37.673Z,80.30
2023-04-27T08:02:18.602Z,80.60
2023-04-27T08:04:48.137Z,79.00
2023-04-27T08:07:17.333Z,78.70
2023-04-27T08:09:45.105Z,78.30
2023-04-27T08:12:12.257Z,79.30
2023-04-27T08:14:39.304Z,79.60
2023-04-27T08:17:06.827Z,78.90
2023-04-27T08:19:34.262Z,78.10
2023-04-27T08:22:01.335Z,75.00
2023-04-27T08:24:28.402Z,74.00
2023-04-27T08:26:55.500Z,70.60
2023-04-27T08:29:27.724Z,70.20
2023-04-27T08:31:58.905Z,72.90
2023-04-27T08:34:27.001Z,69.70
2023-04-27T08:36:54.402Z,69.80
2023-04-27T08:39:21.935Z,70.60
2023-04-27T08:41:49.155Z,69.70
2023-04-27T08:44:16.404Z,71.30
2023-04-27T08:46:43.572Z,73.10
2023-04-27T08:49:11.368Z,74.20
2023-04-27T08:51:39.134Z,74.30
2023-04-27T08:54:06.261Z,74.40
2023-04-27T08:56:33.389Z,74.70
2023-04-27T08:59:03.937Z,75.10
2023-04-27T09:01:32.148Z,75.60
2023-04-27T09:04:02.304Z,76.30
2023-04-27T09:06:34.464Z,76.70
2023-04-27T09:09:02.941Z,77.10
2023-04-27T09:11:39.012Z,77.80
2023-04-27T09:14:16.760Z,77.80
2023-04-27T09:16:44.464Z,78.10
2023-04-27T09:19:12.029Z,78.40
2023-04-27T09:21:39.358Z,78.60
2023-04-27T09:24:13.540Z,78.80
2023-04-27T09:26:42.709Z,79.00
2023-04-27T09:29:10.243Z,78.80
2023-04-27T09:31:38.027Z,79.00
2023-04-27T09:34:05.424Z,79.30
2023-04-27T09:36:32.627Z,79.40
2023-04-27T09:39:06.643Z,79.40
2023-04-27T09:41:34.000Z,79.50
2023-04-27T09:44:01.915Z,79.50
2023-04-27T09:46:29.712Z,79.60
2023-04-27T09:48:57.493Z,79.70
2023-04-27T09:51:24.679Z,79.80
2023-04-27T09:53:53.916Z,79.90
2023-04-27T09:56:30.640Z,79.80
2023-04-27T09:59:22.468Z,79.80
2023-04-27T10:01:54.665Z,79.70
2023-04-27T10:04:46.178Z,79.60
2023-04-27T10:07:15.056Z,79.50
2023-04-27T10:09:46.392Z,79.60
2023-04-27T10:12:26.539Z,79.50
2023-04-27T10:14:58.928Z,79.40
2023-04-27T10:17:31.188Z,79.30
2023-04-27T10:20:09.845Z,79.40
2023-04-27T10:22:44.763Z,79.20
2023-04-27T10:25:23.485Z,79.20
2023-04-27T10:27:55.800Z,79.30
2023-04-27T10:30:24.901Z,79.00
2023-04-27T10:32:57.804Z,79.20
2023-04-27T10:35:34.100Z,79.10
2023-04-27T10:38:08.667Z,79.20
2023-04-27T10:40:37.239Z,79.10
2023-04-27T10:43:18.020Z,79.30
2023-04-27T10:45:45.304Z,80.10
2023-04-27T10:48:16.629Z,80.10
2023-04-27T10:50:47.428Z,80.20
2023-04-27T10:53:15.549Z,80.20
2023-04-27T10:55:42.790Z,80.50
2023-04-27T10:58:09.887Z,80.50
2023-04-27T11:00:41.717Z,80.60
2023-04-27T11:03:15.648Z,80.60
2023-04-27T11:05:44.919Z,80.60
2023-04-27T11:08:14.552Z,80.60
2023-04-27T11:10:47.408Z,80.70
2023-04-27T11:13:25.467Z,80.50
2023-04-27T11:15:57.690Z,80.40
2023-04-27T11:18:33.601Z,80.50
2023-04-27T11:21:11.167Z,80.50
2023-04-27T11:23:39.320Z,80.30
2023-04-27T11:26:17.401Z,80.20
2023-04-27T11:28:59.026Z,80.10
2023-04-27T11:31:43.631Z,80.10
2023-04-27T11:34:17.159Z,80.00
2023-04-27T11:36:44.778Z,79.80
2023-04-27T11:39:22.318Z,79.60
2023-04-27T11:41:49.415Z,79.70
2023-04-27T11:44:16.506Z,80.10
2023-04-27T11:46:45.206Z,79.70
2023-04-27T11:49:12.862Z,79.70
2023-04-27T11:51:40.502Z,79.40
2023-04-27T11:54:07.999Z,79.40
2023-04-27T11:56:40.556Z,79.30
2023-04-27T11:59:19.748Z,79.40
2023-04-27T12:01:47.030Z,79.70
2023-04-27T12:04:14.651Z,79.80
2023-04-27T12:06:42.024Z,80.10
2023-04-27T12:09:09.091Z,79.90
2023-04-27T12:11:36.190Z,80.10
2023-04-27T12:14:03.852Z,80.00
2023-04-27T12:16:31.089Z,79.60
2023-04-27T12:18:58.239Z,79.80
2023-04-27T12:21:25.351Z,79.80
2023-04-27T12:23:52.693Z,79.60
2023-04-27T12:26:20.404Z,79.60
2023-04-27T12:28:47.462Z,79.70
2023-04-27T12:31:16.862Z,79.50
2023-04-27T12:33:43.957Z,79.10
2023-04-27T12:36:11.216Z,79.60
2023-04-27T12:38:38.328Z,79.30
2023-04-27T12:41:05.710Z,79.20
2023-04-27T12:43:33.036Z,79.00
2023-04-27T12:46:00.236Z,78.90
2023-04-27T12:48:27.524Z,79.10
2023-04-27T12:50:54.737Z,78.90
2023-04-27T12:53:21.798Z,78.70
2023-04-27T12:55:48.931Z,78.70
2023-04-27T12:58:16.101Z,78.60
2023-04-27T13:00:43.176Z,78.70
2023-04-27T13:03:10.658Z,78.80
2023-04-27T13:05:37.948Z,78.70
2023-04-27T13:08:05.643Z,78.70
2023-04-27T13:10:32.780Z,78.80
2023-04-27T13:12:59.967Z,78.80
2023-04-27T13:15:27.068Z,78.90
2023-04-27T13:17:54.378Z,79.00
2023-04-27T13:20:21.572Z,79.30
2023-04-27T13:22:48.753Z,79.50
2023-04-27T13:25:16.757Z,79.50
2023-04-27T13:27:43.869Z,79.30
2023-04-27T13:30:11.155Z,79.20
2023-04-27T13:32:38.341Z,79.00
2023-04-27T13:35:05.826Z,79.00
2023-04-27T13:37:32.879Z,78.90
2023-04-27T13:40:00.250Z,78.90
2023-04-27T13:42:29.514Z,78.80
2023-04-27T13:44:57.058Z,78.70
2023-04-27T13:47:24.140Z,78.70
2023-04-27T13:49:51.306Z,78.50
2023-04-27T13:52:18.514Z,78.40
2023-04-27T13:54:45.595Z,78.40
2023-04-27T13:57:12.697Z,78.60
2023-04-27T13:59:39.750Z,78.40
2023-04-27T14:02:08.271Z,78.20
2023-04-27T14:04:35.527Z,78.40
2023-04-27T14:07:02.812Z,78.30
2023-04-27T14:09:30.139Z,78.40
2023-04-27T14:11:57.675Z,78.30
2023-04-27T14:14:24.816Z,78.40
2023-04-27T14:16:53.209Z,78.40
2023-04-27T14:19:20.691Z,78.40
2023-04-27T14:21:49.774Z,78.20
2023-04-27T14:24:16.890Z,78.90
2023-04-27T14:26:44.201Z,78.10
2023-04-27T14:29:11.694Z,78.70
2023-04-27T14:31:40.471Z,78.80
2023-04-27T14:34:08.297Z,78.80
2023-04-27T14:36:35.789Z,78.70
2023-04-27T14:39:05.559Z,78.60
2023-04-27T14:41:32.919Z,78.60
2023-04-27T14:43:59.964Z,78.50
2023-04-27T14:46:27.147Z,78.60
2023-04-27T14:48:54.304Z,78.70
2023-04-27T14:51:21.547Z,78.80
2023-04-27T14:53:49.666Z,78.80
2023-04-27T14:56:16.753Z,78.70
2023-04-27T14:58:43.806Z,78.70
2023-04-27T15:01:10.926Z,78.70
2023-04-27T15:03:38.560Z,78.50
2023-04-27T15:06:06.682Z,78.70
2023-04-27T15:08:34.495Z,78.40
2023-04-27T15:11:03.681Z,75.30
2023-04-27T15:13:31.024Z,72.80
2023-04-27T15:15:59.476Z,73.30
2023-04-27T15:18:26.718Z,72.20
2023-04-27T15:20:55.128Z,73.30
2023-04-27T15:23:23.612Z,74.30
2023-04-27T15:25:54.540Z,74.20
2023-04-27T15:28:21.672Z,73.90
2023-04-27T15:30:49.311Z,74.40
2023-04-27T15:33:17.318Z,75.00
2023-04-27T15:35:44.547Z,74.60
2023-04-27T15:38:13.065Z,74.80
2023-04-27T15:40:40.482Z,74.50
2023-04-27T15:43:07.538Z,74.60
2023-04-27T15:45:34.724Z,74.60
2023-04-27T15:48:02.050Z,74.10
2023-04-27T15:50:29.337Z,72.90
2023-04-27T15:52:56.911Z,73.80
2023-04-27T15:55:24.131Z,73.90
2023-04-27T15:57:51.244Z,73.20
2023-04-27T16:00:21.942Z,73.20
2023-04-27T16:02:49.348Z,73.50
2023-04-27T16:05:16.861Z,73.70
2023-04-27T16:07:44.817Z,73.40
2023-04-27T16:10:12.598Z,72.60
2023-04-27T16:12:39.864Z,73.00
2023-04-27T16:15:10.014Z,72.70
2023-04-27T16:17:38.627Z,72.50
2023-04-27T16:20:06.758Z,71.50
2023-04-27T16:22:34.834Z,71.60
2023-04-27T16:25:02.198Z,72.90
2023-04-27T16:27:29.754Z,74.80
2023-04-27T16:29:56.860Z,75.90
2023-04-27T16:32:24.120Z,77.10
2023-04-27T16:34:51.300Z,78.40
2023-04-27T16:37:18.356Z,79.30
2023-04-27T16:39:45.534Z,78.50
2023-04-27T16:42:19.883Z,77.70
2023-04-27T16:44:47.446Z,79.10
2023-04-27T16:47:14.769Z,78.50
2023-04-27T16:49:44.259Z,76.20
2023-04-27T16:52:11.857Z,77.50
2023-04-27T16:54:38.922Z,77.30
2023-04-27T16:57:07.650Z,76.60
2023-04-27T16:59:34.898Z,77.60
2023-04-27T17:02:16.370Z,77.00
2023-04-27T17:04:48.521Z,77.10
2023-04-27T17:07:15.712Z,77.60
2023-04-27T17:09:42.791Z,78.30
2023-04-27T17:12:14.487Z,78.70
2023-04-27T17:14:42.250Z,79.60
2023-04-27T17:17:10.122Z,79.80
2023-04-27T17:19:37.223Z,80.30
2023-04-27T17:22:04.494Z,80.80
2023-04-27T17:24:31.689Z,81.00
2023-04-27T17:26:58.755Z,81.30
2023-04-27T17:29:25.973Z,81.60
2023-04-27T17:31:53.100Z,82.00
2023-04-27T17:34:20.865Z,82.40
2023-04-27T17:36:47.976Z,82.80
2023-04-27T17:39:15.368Z,83.00
2023-04-27T17:41:42.663Z,83.20
2023-04-27T17:44:11.885Z,83.90
2023-04-27T17:46:39.029Z,84.10
2023-04-27T17:49:06.269Z,84.00
2023-04-27T17:51:34.233Z,84.40
2023-04-27T17:54:01.410Z,84.50
2023-04-27T17:56:28.539Z,84.70
2023-04-27T17:58:55.740Z,84.70
2023-04-27T18:01:22.859Z,84.90
2023-04-27T18:03:50.406Z,84.40
2023-04-27T18:06:19.370Z,84.70
2023-04-27T18:08:46.631Z,84.70
2023-04-27T18:11:13.756Z,84.90
2023-04-27T18:13:41.207Z,84.80
2023-04-27T18:16:08.353Z,84.90
2023-04-27T18:18:35.403Z,84.80
2023-04-27T18:21:02.878Z,84.70
2023-04-27T18:23:30.004Z,84.90
2023-04-27T18:26:00.313Z,84.50
2023-04-27T18:28:27.372Z,84.80
2023-04-27T18:30:54.464Z,84.90
2023-04-27T18:33:22.556Z,84.70
2023-04-27T18:35:50.839Z,85.00
2023-04-27T18:38:17.931Z,85.20
2023-04-27T18:40:45.024Z,85.40
2023-04-27T18:43:12.134Z,85.50
2023-04-27T18:45:39.226Z,85.50
2023-04-27T18:48:06.418Z,85.80
2023-04-27T18:50:33.526Z,85.60
2023-04-27T18:53:00.689Z,85.70
2023-04-27T18:55:27.771Z,86.30
2023-04-27T18:57:54.923Z,87.00
2023-04-27T19:00:22.134Z,87.00
2023-04-27T19:02:51.822Z,87.30
2023-04-27T19:05:20.063Z,87.30
2023-04-27T19:07:47.135Z,87.30
2023-04-27T19:10:14.249Z,87.20
2023-04-27T19:12:41.491Z,87.20
2023-04-27T19:15:09.106Z,86.80
2023-04-27T19:17:36.280Z,86.40
2023-04-27T19:20:03.817Z,86.10
2023-04-27T19:22:34.105Z,85.90
2023-04-27T19:25:01.548Z,85.80
2023-04-27T19:27:28.880Z,85.80
2023-04-27T19:29:58.109Z,85.30
2023-04-27T19:32:27.210Z,85.60
2023-04-27T19:34:56.208Z,86.60
2023-04-27T19:37:24.562Z,87.50
2023-04-27T19:45:07.955Z,88.00
2023-04-27T19:47:35.368Z,88.00
2023-04-27T19:50:03.149Z,88.80
2023-04-27T19:52:30.600Z,88.10
2023-04-27T19:54:57.732Z,88.00
2023-04-27T19:57:24.813Z,88.00
2023-04-27T19:59:51.862Z,88.10
2023-04-27T20:02:18.953Z,87.80
2023-04-27T20:04:47.471Z,88.00
2023-04-27T20:07:14.834Z,87.80
2023-04-27T20:09:42.043Z,88.40
2023-04-27T20:12:15.868Z,87.60
2023-04-27T20:14:51.009Z,87.60
2023-04-27T20:17:18.215Z,87.40
2023-04-27T20:19:46.011Z,87.20
2023-04-27T20:22:13.122Z,86.90
2023-04-27T20:24:40.202Z,86.90
2023-04-27T20:27:07.262Z,86.80
2023-04-27T20:29:34.497Z,86.60
2023-04-27T20:32:02.231Z,86.40
2023-04-27T20:34:29.377Z,86.60
2023-04-27T20:36:57.853Z,86.30
2023-04-27T20:39:24.991Z,86.20
2023-04-27T20:41:52.052Z,86.00
2023-04-27T20:44:20.638Z,85.80
2023-04-27T20:46:47.940Z,85.80
2023-04-27T20:49:19.133Z,85.70
2023-04-27T20:51:53.012Z,86.40
2023-04-27T20:54:20.083Z,85.70
2023-04-27T20:56:47.110Z,86.30
2023-04-27T20:59:14.350Z,86.50
2023-04-27T21:01:41.542Z,87.20
2023-04-27T21:04:08.932Z,87.90
2023-04-27T21:06:37.287Z,88.40
2023-04-27T21:09:05.342Z,89.00
2023-04-27T21:11:32.410Z,88.80
2023-04-27T21:13:59.503Z,88.70
2023-04-27T21:16:26.569Z,89.10
2023-04-27T21:18:53.614Z,89.30
2023-04-27T21:21:21.992Z,89.20
2023-04-27T21:23:54.319Z,89.50
2023-04-27T21:26:27.786Z,89.30
2023-04-27T21:28:55.238Z,89.30
2023-04-27T21:31:22.419Z,89.50
2023-04-27T21:33:50.615Z,89.70
2023-04-27T21:36:17.656Z,89.90
2023-04-27T21:38:45.015Z,90.00
2023-04-27T21:41:12.126Z,90.00
2023-04-27T21:43:42.133Z,89.80
2023-04-27T21:46:09.550Z,89.80
2023-04-27T21:48:36.642Z,89.70
2023-04-27T21:51:03.816Z,89.70
2023-04-27T21:53:30.896Z,89.40
2023-04-27T21:55:58.136Z,89.20
2023-04-27T21:58:25.554Z,89.00
2023-04-27T22:00:52.623Z,88.90
2023-04-27T22:03:19.906Z,88.30
2023-04-27T22:05:48.824Z,88.20
2023-04-27T22:08:17.253Z,87.90
2023-04-27T22:10:45.100Z,87.70
2023-04-27T22:13:18.315Z,87.40
2023-04-27T22:15:46.501Z,87.20
2023-04-27T22:18:14.806Z,87.00
2023-04-27T22:20:42.393Z,86.80
2023-04-27T22:23:10.053Z,86.80
2023-04-27T22:25:37.437Z,86.70
2023-04-27T22:28:05.533Z,87.10
2023-04-27T22:30:32.619Z,87.00
2023-04-27T22:33:01.286Z,86.50
2023-04-27T22:35:28.737Z,86.40
2023-04-27T22:37:56.219Z,86.30
2023-04-27T22:40:23.485Z,86.20
2023-04-27T22:42:50.814Z,86.30
2023-04-27T22:45:17.962Z,86.50
2023-04-27T22:47:45.833Z,86.30
2023-04-27T22:50:13.828Z,86.30
2023-04-27T22:52:43.963Z,86.40
2023-04-27T22:55:11.952Z,86.40
2023-04-27T22:57:39.619Z,86.40
2023-04-27T23:00:10.861Z,86.20
2023-04-27T23:02:42.022Z,86.20
2023-04-27T23:05:10.857Z,85.90
2023-04-27T23:07:40.828Z,85.70
2023-04-27T23:10:08.452Z,85.40
2023-04-27T23:12:35.814Z,85.10
2023-04-27T23:15:03.081Z,84.90
2023-04-27T23:17:30.627Z,84.60
2023-04-27T23:19:58.978Z,84.60
2023-04-27T23:22:26.301Z,84.40
2023-04-27T23:24:53.870Z,84.20
2023-04-27T23:27:22.371Z,83.80
2023-04-27T23:29:49.456Z,83.70
2023-04-27T23:32:17.024Z,83.60
2023-04-27T23:34:44.103Z,83.80
2023-04-27T23:37:11.224Z,83.80
2023-04-27T23:39:38.282Z,83.80
2023-04-27T23:42:05.465Z,84.00
2023-04-27T23:44:32.557Z,83.90
2023-04-27T23:46:59.634Z,84.20
2023-04-27T23:49:26.735Z,84.30
2023-04-27T23:51:53.808Z,84.40
2023-04-27T23:54:20.929Z,84.60
2023-04-27T23:56:49.653Z,84.70
2023-04-27T23:59:17.075Z,84.90
